createdAt,value
2019-03-20T00:00:43.652Z,102288.88
2019-03-20T00:03:15.601Z,102292.95
2019-03-20T00:05:47.561Z,102293.64
2019-03-20T00:08:19.451Z,102293.23
2019-03-20T00:10:51.434Z,102299.34
2019-03-20T00:13:23.346Z,102298.03
2019-03-20T00:15:55.371Z,102297.99
2019-03-20T00:18:28.591Z,102298.41
2019-03-20T00:21:00.625Z,102298.73
2019-03-20T00:23:32.631Z,102300.48
2019-03-20T00:26:04.628Z,102309.30
2019-03-20T00:28:36.669Z,102306.12
2019-03-20T00:31:08.615Z,102308.44
2019-03-20T00:33:40.607Z,102301.69
2019-03-20T00:36:12.911Z,102304.16
2019-03-20T00:38:44.975Z,102303.98
2019-03-20T00:41:16.884Z,102298.87
2019-03-20T00:43:48.853Z,102303.86
2019-03-20T00:46:20.761Z,102297.27
2019-03-20T00:48:52.732Z,102297.43
2019-03-20T00:51:24.696Z,102304.34
2019-03-20T00:53:56.616Z,102303.45
2019-03-20T00:56:28.478Z,102300.71
2019-03-20T00:59:00.458Z,102296.05
2019-03-20T01:01:34.100Z,102292.09
2019-03-20T01:04:06.201Z,102297.22
2019-03-20T01:06:38.180Z,102296.62
2019-03-20T01:09:10.092Z,102298.03
2019-03-20T01:11:42.037Z,102295.94
2019-03-20T01:14:13.909Z,102294.85
2019-03-20T01:16:47.058Z,102290.56
2019-03-20T01:19:18.970Z,102292.68
2019-03-20T01:21:51.024Z,102287.16
2019-03-20T01:24:22.932Z,102283.47
2019-03-20T01:26:54.832Z,102284.47
2019-03-20T01:29:27.876Z,102284.74
2019-03-20T01:31:59.840Z,102285.30
2019-03-20T01:34:31.797Z,102289.52
2019-03-20T01:37:03.907Z,102293.78
2019-03-20T01:39:35.767Z,102298.64
2019-03-20T01:42:07.680Z,102300.20
2019-03-20T01:44:39.659Z,102306.12
2019-03-20T01:47:11.656Z,102301.59
2019-03-20T01:49:43.568Z,102304.83
2019-03-20T01:52:15.464Z,102311.42
2019-03-20T01:54:47.443Z,102317.34
2019-03-20T01:57:19.339Z,102315.95
2019-03-20T01:59:51.233Z,102323.70
2019-03-20T02:02:23.219Z,102320.43
2019-03-20T02:04:55.251Z,102318.32
2019-03-20T02:07:27.132Z,102323.03
2019-03-20T02:09:59.044Z,102317.83
2019-03-20T02:12:31.007Z,102315.23
2019-03-20T02:15:06.122Z,102319.77
2019-03-20T02:17:40.488Z,102325.81
2019-03-20T02:20:16.748Z,102320.44
2019-03-20T02:22:50.721Z,102330.92
2019-03-20T02:25:25.108Z,102329.31
2019-03-20T02:27:57.435Z,102335.05
2019-03-20T02:30:29.601Z,102331.47
2019-03-20T02:33:07.585Z,102329.05
2019-03-20T02:35:51.447Z,102328.87
2019-03-20T02:38:14.987Z,102327.26
2019-03-20T02:40:47.033Z,102326.77
2019-03-20T02:43:18.963Z,102321.25
2019-03-20T02:45:52.433Z,102320.62
2019-03-20T02:48:24.369Z,102326.27
2019-03-20T02:50:57.039Z,102326.53
2019-03-20T02:53:29.992Z,102319.23
2019-03-20T02:56:01.941Z,102331.25
2019-03-20T02:58:33.986Z,102335.31
2019-03-20T03:01:05.959Z,102337.97
2019-03-20T03:03:39.736Z,102340.16
2019-03-20T03:06:11.820Z,102343.75
2019-03-20T03:08:46.905Z,102347.41
2019-03-20T03:11:20.563Z,102357.62
2019-03-20T03:13:52.645Z,102356.64
2019-03-20T03:16:24.607Z,102355.66
2019-03-20T03:18:56.483Z,102355.44
2019-03-20T03:21:28.423Z,102345.36
2019-03-20T03:24:00.423Z,102353.10
2019-03-20T03:26:32.321Z,102354.31
2019-03-20T03:29:04.274Z,102353.73
2019-03-20T03:31:36.221Z,102355.93
2019-03-20T03:34:09.944Z,102361.61
2019-03-20T03:36:41.936Z,102356.73
2019-03-20T03:39:13.819Z,102354.30
2019-03-20T03:41:45.678Z,102366.22
2019-03-20T03:44:18.681Z,102371.73
2019-03-20T03:46:50.589Z,102370.73
2019-03-20T03:49:22.535Z,102366.39
2019-03-20T03:51:54.509Z,102367.19
2019-03-20T03:54:26.447Z,102373.28
2019-03-20T03:56:58.391Z,102371.41
2019-03-20T03:59:30.335Z,102373.69
2019-03-20T04:02:02.304Z,102382.11
2019-03-20T04:04:34.150Z,102378.30
2019-03-20T04:07:06.212Z,102370.59
2019-03-20T04:09:38.163Z,102374.42
2019-03-20T04:12:10.144Z,102371.49
2019-03-20T04:14:42.052Z,102377.22
2019-03-20T04:17:28.519Z,102383.48
2019-03-20T04:20:00.558Z,102390.19
2019-03-20T04:22:32.557Z,102386.95
2019-03-20T04:25:04.649Z,102390.04
2019-03-20T04:27:36.540Z,102391.95
2019-03-20T04:30:08.803Z,102389.77
2019-03-20T04:32:40.904Z,102392.66
2019-03-20T04:35:13.402Z,102404.63
2019-03-20T04:37:45.315Z,102395.23
2019-03-20T04:40:17.354Z,102396.06
2019-03-20T04:42:49.359Z,102397.02
2019-03-20T04:45:21.273Z,102406.33
2019-03-20T04:47:53.216Z,102401.36
2019-03-20T04:50:25.294Z,102397.80
2019-03-20T04:52:57.249Z,102406.48
2019-03-20T04:55:29.211Z,102405.22
2019-03-20T04:58:01.331Z,102413.60
2019-03-20T05:00:33.203Z,102407.51
2019-03-20T05:03:05.145Z,102412.21
2019-03-20T05:05:37.012Z,102410.76
2019-03-20T05:08:08.958Z,102409.21
2019-03-20T05:10:41.863Z,102411.31
2019-03-20T05:13:13.817Z,102412.39
2019-03-20T05:15:46.794Z,102411.84
2019-03-20T05:18:18.711Z,102416.41
2019-03-20T05:20:50.675Z,102420.55
2019-03-20T05:23:22.570Z,102420.55
2019-03-20T05:25:54.579Z,102428.62
2019-03-20T05:28:26.450Z,102430.16
2019-03-20T05:30:58.527Z,102436.52
2019-03-20T05:33:42.047Z,102433.86
2019-03-20T05:36:33.578Z,102429.59
2019-03-20T05:39:16.010Z,102434.07
2019-03-20T05:41:54.098Z,102434.97
2019-03-20T05:44:56.858Z,102442.59
2019-03-20T05:47:32.490Z,102441.31
2019-03-20T05:50:06.629Z,102452.21
2019-03-20T05:52:39.955Z,102455.62
2019-03-20T05:55:12.172Z,102461.55
2019-03-20T05:57:44.205Z,102461.33
2019-03-20T06:00:17.020Z,102453.03
2019-03-20T06:02:49.108Z,102448.66
2019-03-20T06:05:21.118Z,102454.09
2019-03-20T06:07:56.530Z,102464.89
2019-03-20T06:10:28.502Z,102466.36
2019-03-20T06:13:00.374Z,102460.81
2019-03-20T06:15:32.325Z,102472.98
2019-03-20T06:18:04.285Z,102468.16
2019-03-20T06:20:36.214Z,102466.23
2019-03-20T06:23:08.380Z,102465.55
2019-03-20T06:25:40.435Z,102401.17
2019-03-20T06:28:12.338Z,102476.09
2019-03-20T06:30:44.344Z,102475.49
2019-03-20T06:33:16.218Z,102481.16
2019-03-20T06:35:48.114Z,102486.61
2019-03-20T06:38:20.086Z,102498.13
2019-03-20T06:40:52.159Z,102500.77
2019-03-20T06:43:24.158Z,102506.47
2019-03-20T06:45:56.048Z,102503.14
2019-03-20T06:48:27.940Z,102505.48
2019-03-20T06:50:59.857Z,102502.97
2019-03-20T06:53:32.672Z,102510.99
2019-03-20T06:56:04.657Z,102510.56
2019-03-20T06:58:36.629Z,102512.78
2019-03-20T07:01:18.006Z,102523.16
2019-03-20T07:04:46.150Z,102522.74
2019-03-20T07:07:43.173Z,102524.05
2019-03-20T07:11:02.615Z,102522.97
2019-03-20T07:13:35.547Z,102532.47
2019-03-20T07:16:07.845Z,102524.86
2019-03-20T07:18:40.906Z,102527.84
2019-03-20T07:21:12.932Z,102531.84
2019-03-20T07:23:44.882Z,102534.66
2019-03-20T07:26:18.273Z,102539.30
2019-03-20T07:28:50.227Z,102534.36
2019-03-20T07:31:22.147Z,102542.02
2019-03-20T07:37:36.713Z,102541.55
2019-03-20T07:40:09.486Z,102543.31
2019-03-20T07:42:41.589Z,102542.00
2019-03-20T07:45:13.484Z,102536.19
2019-03-20T07:47:45.454Z,102539.36
2019-03-20T07:50:17.301Z,102540.45
2019-03-20T07:52:49.177Z,102537.77
2019-03-20T07:55:21.078Z,102545.06
2019-03-20T07:57:53.029Z,102540.38
2019-03-20T08:00:27.053Z,102541.38
2019-03-20T08:02:58.981Z,102539.68
2019-03-20T08:05:32.937Z,102544.53
2019-03-20T08:08:07.537Z,102548.05
2019-03-20T08:10:38.457Z,102549.29
2019-03-20T08:13:10.361Z,102552.63
2019-03-20T08:15:42.257Z,102546.18
2019-03-20T08:18:14.241Z,102548.44
2019-03-20T08:20:46.245Z,102553.92
2019-03-20T08:23:18.084Z,102551.00
2019-03-20T08:25:50.053Z,102552.06
2019-03-20T08:28:22.001Z,102556.27
2019-03-20T08:30:54.040Z,102551.48
2019-03-20T08:33:26.337Z,102559.48
2019-03-20T08:35:58.295Z,102558.48
2019-03-20T08:38:30.182Z,102555.64
2019-03-20T08:41:02.141Z,102561.05
2019-03-20T08:43:35.038Z,102558.52
2019-03-20T08:46:06.902Z,102553.60
2019-03-20T08:48:38.766Z,102556.01
2019-03-20T08:51:10.708Z,102557.01
2019-03-20T08:53:42.565Z,102560.62
2019-03-20T08:56:14.473Z,102559.23
2019-03-20T08:58:46.488Z,102561.67
2019-03-20T09:01:28.134Z,102562.85
2019-03-20T09:03:52.401Z,102577.09
2019-03-20T09:06:24.373Z,102569.98
2019-03-20T09:08:56.392Z,102575.53
2019-03-20T09:11:29.973Z,102572.84
2019-03-20T09:14:01.988Z,102574.26
2019-03-20T09:16:33.848Z,102580.81
2019-03-20T09:19:05.848Z,102577.46
2019-03-20T09:21:37.876Z,102577.98
2019-03-20T09:24:09.811Z,102574.48
2019-03-20T09:26:41.694Z,102576.66
2019-03-20T09:29:18.440Z,102580.78
2019-03-20T09:31:47.369Z,102587.54
2019-03-20T09:34:19.402Z,102582.21
2019-03-20T09:36:51.444Z,102580.62
2019-03-20T09:39:23.428Z,102579.89
2019-03-20T09:41:55.400Z,102575.41
2019-03-20T09:44:27.404Z,102578.06
2019-03-20T09:46:59.377Z,102579.34
2019-03-20T09:49:31.264Z,102578.61
2019-03-20T09:52:03.124Z,102579.94
2019-03-20T09:54:35.055Z,102582.18
2019-03-20T09:57:06.992Z,102576.17
2019-03-20T09:59:41.604Z,102576.91
2019-03-20T10:02:13.473Z,102579.68
2019-03-20T10:04:45.426Z,102578.55
2019-03-20T10:07:17.377Z,102580.38
2019-03-20T10:09:49.249Z,102581.73
2019-03-20T10:12:21.184Z,102579.02
2019-03-20T10:14:53.086Z,102585.47
2019-03-20T10:17:24.928Z,102579.27
2019-03-20T10:19:56.848Z,102569.77
2019-03-20T10:22:28.828Z,102573.05
2019-03-20T10:25:00.744Z,102571.40
2019-03-20T10:27:32.829Z,102582.39
2019-03-20T10:30:05.920Z,102570.94
2019-03-20T10:32:37.924Z,102567.47
2019-03-20T10:35:10.388Z,102571.63
2019-03-20T10:37:42.288Z,102574.52
2019-03-20T10:40:16.845Z,102571.97
2019-03-20T10:42:48.804Z,102574.22
2019-03-20T10:45:23.442Z,102568.38
2019-03-20T10:47:55.518Z,102571.48
2019-03-20T10:50:27.803Z,102570.98
2019-03-20T10:52:59.737Z,102573.38
2019-03-20T10:55:31.802Z,102578.84
2019-03-20T10:58:03.678Z,102574.02
2019-03-20T11:00:35.554Z,102564.42
2019-03-20T11:03:07.639Z,102570.23
2019-03-20T11:05:39.707Z,102575.77
2019-03-20T11:08:13.009Z,102572.01
2019-03-20T11:10:49.114Z,102568.08
2019-03-20T11:13:25.360Z,102562.41
2019-03-20T11:16:01.359Z,102564.89
2019-03-20T11:18:33.677Z,102565.63
2019-03-20T11:21:05.712Z,102565.22
2019-03-20T11:23:38.971Z,102561.03
2019-03-20T11:26:13.520Z,102553.19
2019-03-20T11:28:47.028Z,102559.44
2019-03-20T11:31:20.959Z,102555.05
2019-03-20T11:33:52.817Z,102553.27
2019-03-20T11:36:24.759Z,102550.42
2019-03-20T11:39:05.700Z,102546.48
2019-03-20T11:41:42.598Z,102538.02
2019-03-20T11:44:25.084Z,102536.16
2019-03-20T11:46:59.081Z,102541.02
2019-03-20T11:49:35.731Z,102535.27
2019-03-20T11:52:11.028Z,102548.05
2019-03-20T11:54:43.083Z,102525.77
2019-03-20T11:57:17.267Z,102528.41
2019-03-20T11:59:49.835Z,102516.86
2019-03-20T12:02:28.309Z,102513.26
2019-03-20T12:04:57.563Z,102513.79
2019-03-20T12:07:31.207Z,102511.06
2019-03-20T12:10:05.030Z,102514.63
2019-03-20T12:12:58.852Z,102510.36
2019-03-20T12:15:42.927Z,102504.19
2019-03-20T12:18:16.447Z,102517.24
2019-03-20T12:20:50.060Z,102500.38
2019-03-20T12:23:26.995Z,102502.78
2019-03-20T12:25:58.959Z,102490.00
2019-03-20T12:28:35.965Z,102482.10
2019-03-20T12:31:08.683Z,102481.17
2019-03-20T12:33:40.767Z,102482.27
2019-03-20T12:36:12.703Z,102477.41
2019-03-20T12:38:44.558Z,102477.47
2019-03-20T12:41:16.976Z,102473.94
2019-03-20T12:43:48.911Z,102480.67
2019-03-20T12:46:20.793Z,102478.00
2019-03-20T12:49:03.829Z,102483.38
2019-03-20T12:51:38.759Z,102484.28
2019-03-20T12:54:18.466Z,102478.13
2019-03-20T12:56:52.123Z,102475.93
2019-03-20T12:59:24.339Z,102475.54
2019-03-20T13:01:56.367Z,102471.94
2019-03-20T13:04:30.450Z,102478.00
2019-03-20T13:07:02.375Z,102465.68
2019-03-20T13:09:34.285Z,102465.72
2019-03-20T13:12:10.875Z,102462.55
2019-03-20T13:14:55.544Z,102461.72
2019-03-20T13:17:30.248Z,102468.93
2019-03-20T13:20:04.066Z,102474.59
2019-03-20T13:22:36.133Z,102466.98
2019-03-20T13:25:17.748Z,102467.99
2019-03-20T13:27:51.215Z,102469.77
2019-03-20T13:30:30.844Z,102464.37
2019-03-20T13:33:02.792Z,102461.30
2019-03-20T13:35:35.662Z,102451.09
2019-03-20T13:38:07.623Z,102454.34
2019-03-20T13:40:39.578Z,102446.94
2019-03-20T13:43:11.450Z,102445.02
2019-03-20T13:45:43.313Z,102446.78
2019-03-20T13:48:15.324Z,102450.69
2019-03-20T13:50:47.230Z,102445.81
2019-03-20T13:53:19.084Z,102440.98
2019-03-20T13:55:50.986Z,102443.69
2019-03-20T13:58:22.982Z,102446.34
2019-03-20T14:00:55.022Z,102440.57
2019-03-20T14:03:27.070Z,102446.24
2019-03-20T14:05:59.042Z,102447.63
2019-03-20T14:08:31.008Z,102439.70
2019-03-20T14:11:02.948Z,102446.77
2019-03-20T14:13:34.970Z,102438.34
2019-03-20T14:16:06.981Z,102440.07
2019-03-20T14:18:38.902Z,102443.17
2019-03-20T14:21:10.839Z,102440.59
2019-03-20T14:23:42.780Z,102442.48
2019-03-20T14:26:14.682Z,102431.47
2019-03-20T14:28:46.503Z,102433.59
2019-03-20T14:31:18.494Z,102432.03
2019-03-20T14:33:50.410Z,102425.51
2019-03-20T14:36:22.407Z,102423.78
2019-03-20T14:38:54.370Z,102417.53
2019-03-20T14:41:26.298Z,102430.34
2019-03-20T14:43:58.235Z,102416.64
2019-03-20T14:46:30.283Z,102422.33
2019-03-20T14:49:02.258Z,102420.49
2019-03-20T14:51:34.166Z,102423.53
2019-03-20T14:54:06.145Z,102427.50
2019-03-20T14:56:37.978Z,102426.78
2019-03-20T14:59:09.821Z,102420.11
2019-03-20T15:01:42.784Z,102409.97
2019-03-20T15:04:14.701Z,102415.75
2019-03-20T15:06:46.642Z,102418.71
2019-03-20T15:09:18.520Z,102422.20
2019-03-20T15:11:50.402Z,102433.70
2019-03-20T15:14:24.185Z,102439.94
2019-03-20T15:16:56.258Z,102443.97
2019-03-20T15:19:28.067Z,102442.61
2019-03-20T15:21:59.961Z,102443.03
2019-03-20T15:24:31.881Z,102446.13
2019-03-20T15:27:03.903Z,102446.53
2019-03-20T15:29:35.778Z,102443.16
2019-03-20T15:32:07.839Z,102426.76
2019-03-20T15:34:55.469Z,102420.17
2019-03-20T15:37:22.575Z,102422.39
2019-03-20T15:39:56.145Z,102424.05
2019-03-20T15:42:30.286Z,102427.20
2019-03-20T15:45:04.053Z,102426.33
2019-03-20T15:47:39.826Z,102416.45
2019-03-20T15:50:16.663Z,102414.64
2019-03-20T15:52:55.265Z,102422.11
2019-03-20T15:55:46.293Z,102416.45
2019-03-20T15:58:15.987Z,102428.77
2019-03-20T16:00:54.635Z,102433.24
2019-03-20T16:03:35.509Z,102434.13
2019-03-20T16:06:07.644Z,102421.32
2019-03-20T16:09:22.797Z,102425.20
2019-03-20T16:13:30.633Z,102427.24
2019-03-20T16:17:29.587Z,102420.11
2019-03-20T16:20:17.350Z,102407.61
2019-03-20T16:23:34.255Z,102409.86
2019-03-20T17:03:46.357Z,102427.70
2019-03-20T17:07:09.997Z,102441.68
2019-03-20T17:09:41.897Z,102444.22
2019-03-20T17:12:14.193Z,102446.56
2019-03-20T17:14:46.655Z,102460.47
2019-03-20T17:18:40.643Z,102463.25
2019-03-20T17:21:14.929Z,102459.90
2019-03-20T17:23:49.141Z,102461.36
2019-03-20T17:26:23.004Z,102461.54
2019-03-20T17:28:55.392Z,102462.86
2019-03-20T17:31:27.478Z,102452.70
2019-03-20T17:33:59.716Z,102447.78
2019-03-20T17:36:33.524Z,102454.66
2019-03-20T17:39:16.469Z,102457.23
2019-03-20T17:42:03.522Z,102460.53
2019-03-20T17:44:49.061Z,102460.10
2019-03-20T17:47:56.744Z,102463.20
2019-03-20T17:50:36.818Z,102464.35
2019-03-20T17:53:24.531Z,102468.56
2019-03-20T17:55:58.220Z,102481.00
2019-03-20T17:58:34.046Z,102485.39
2019-03-20T18:01:09.658Z,102488.50
2019-03-20T18:03:43.248Z,102485.09
2019-03-20T18:06:23.428Z,102488.93
2019-03-20T18:08:59.067Z,102485.13
2019-03-20T18:11:33.797Z,102487.80
2019-03-20T18:14:13.771Z,102489.39
2019-03-20T18:16:58.769Z,102492.34
2019-03-20T18:19:38.490Z,102497.73
2019-03-20T18:22:16.972Z,102500.56
2019-03-20T18:28:43.290Z,102496.46
2019-03-20T18:35:21.708Z,102492.64
2019-03-20T18:38:05.377Z,102484.23
2019-03-20T18:40:38.784Z,102478.80
2019-03-20T18:43:34.021Z,102480.20
2019-03-20T19:30:53.413Z,102496.66
2019-03-20T19:33:25.760Z,102500.25
2019-03-20T19:51:15.494Z,102497.54
2019-03-20T19:54:04.621Z,102497.61
2019-03-20T19:56:49.374Z,102493.72
2019-03-20T21:12:33.923Z,102504.11
2019-03-20T21:15:07.055Z,102508.06
2019-03-20T21:18:05.753Z,102515.09
2019-03-20T21:20:39.994Z,102513.81
2019-03-20T21:24:08.515Z,102513.78
2019-03-20T21:26:58.830Z,102518.66
2019-03-20T21:30:47.575Z,102517.80
2019-03-20T21:34:16.186Z,102519.16
2019-03-20T21:38:00.203Z,102523.14
2019-03-20T21:40:56.039Z,102523.11
2019-03-20T21:44:32.925Z,102524.89
2019-03-20T21:47:32.641Z,102527.53
2019-03-20T21:51:10.937Z,102529.31
2019-03-20T21:54:43.645Z,102538.13
2019-03-20T21:57:48.463Z,102538.16
2019-03-20T22:01:30.370Z,102539.91
2019-03-20T22:04:03.947Z,102543.88
2019-03-20T22:07:10.478Z,102549.61
2019-03-20T22:10:51.322Z,102554.93
2019-03-20T22:13:50.580Z,102555.85
2019-03-20T22:17:19.351Z,102555.42
2019-03-20T22:20:22.808Z,102556.74
2019-03-20T22:24:16.078Z,102562.05
2019-03-20T22:27:30.920Z,102566.84
2019-03-20T22:30:03.726Z,102575.19
2019-03-20T22:33:29.950Z,102576.94
2019-03-20T22:36:29.338Z,102576.51
2019-03-20T22:39:59.594Z,102580.97
2019-03-20T22:42:56.678Z,102577.86
2019-03-20T22:46:50.847Z,102580.08
2019-03-20T22:50:30.390Z,102584.03
2019-03-20T22:53:50.657Z,102585.36
2019-03-20T22:57:27.369Z,102577.86
2019-03-20T23:00:00.061Z,102573.08
2019-03-20T23:02:52.406Z,102576.58
2019-03-20T23:05:25.038Z,102570.44
2019-03-20T23:07:57.894Z,102572.69
2019-03-20T23:10:30.706Z,102564.23
2019-03-20T23:13:03.514Z,102565.95
2019-03-20T23:15:36.411Z,102571.73
2019-03-20T23:18:09.172Z,102569.98
2019-03-20T23:20:41.928Z,102581.95
2019-03-20T23:23:14.635Z,102567.38
2019-03-20T23:25:47.377Z,102564.63
2019-03-20T23:28:20.181Z,102563.80
2019-03-20T23:30:53.069Z,102565.13
2019-03-20T23:33:26.036Z,102559.84
2019-03-20T23:35:58.884Z,102564.73
2019-03-20T23:38:31.975Z,102563.38
2019-03-20T23:41:05.852Z,102561.56
2019-03-20T23:43:39.684Z,102557.11
2019-03-20T23:46:12.522Z,102555.82
2019-03-20T23:48:56.865Z,102556.71
2019-03-20T23:51:29.649Z,102554.99
2019-03-20T23:54:02.384Z,102558.92
2019-03-20T23:56:36.908Z,102555.39
2019-03-20T23:59:10.066Z,102554.00
